createdAt,value
2023-04-04T17:01:39.616Z,8.48
2023-04-04T17:02:39.528Z,8.51
2023-04-04T17:03:39.550Z,8.51
2023-04-04T17:04:41.712Z,8.53
2023-04-04T17:05:39.477Z,8.55
2023-04-04T17:06:39.468Z,8.55
2023-04-04T17:07:40.428Z,8.51
2023-04-04T17:08:39.445Z,8.49
2023-04-04T17:09:39.469Z,8.46
2023-04-04T17:10:39.605Z,8.42
2023-04-04T17:11:39.395Z,8.36
2023-04-04T17:12:39.412Z,8.36
2023-04-04T17:13:39.374Z,8.33
2023-04-04T17:14:39.355Z,8.30
2023-04-04T17:15:39.364Z,8.26
2023-04-04T17:16:39.344Z,8.24
2023-04-04T17:17:39.314Z,8.20
2023-04-04T17:18:39.426Z,8.19
2023-04-04T17:19:39.288Z,8.15
2023-04-04T17:20:42.610Z,8.06
2023-04-04T17:21:42.298Z,8.01
2023-04-04T17:22:39.237Z,8.03
2023-04-04T17:23:39.228Z,8.03
2023-04-04T17:24:39.226Z,8.01
2023-04-04T17:25:39.242Z,8.00
2023-04-04T17:26:39.194Z,7.98
2023-04-04T17:27:39.181Z,7.95
2023-04-04T17:28:39.240Z,7.91
2023-04-04T17:29:39.151Z,7.87
2023-04-04T17:30:39.357Z,7.87
2023-04-04T17:31:39.183Z,7.85
2023-04-04T17:32:39.142Z,7.87
2023-04-04T17:33:39.106Z,7.83
2023-04-04T17:34:39.080Z,7.85
2023-04-04T17:35:39.083Z,7.83
2023-04-04T17:36:39.105Z,7.80
2023-04-04T17:37:39.042Z,7.79
2023-04-04T17:38:39.147Z,7.77
2023-04-04T17:39:39.021Z,7.77
2023-04-04T17:40:42.237Z,7.77
2023-04-04T17:41:42.018Z,7.76
2023-04-04T17:42:38.979Z,7.76
2023-04-04T17:43:38.965Z,7.77
2023-04-04T17:44:38.987Z,7.73
2023-04-04T17:45:38.957Z,7.72
2023-04-04T17:46:38.968Z,7.70
2023-04-04T17:47:38.915Z,7.70
2023-04-04T17:48:38.934Z,7.69
2023-04-04T17:49:38.900Z,7.66
2023-04-04T17:50:39.274Z,7.58
2023-04-04T17:51:38.852Z,7.56
2023-04-04T17:52:38.849Z,7.53
2023-04-04T17:53:38.873Z,7.51
2023-04-04T17:54:38.940Z,7.50
2023-04-04T17:55:38.822Z,7.47
2023-04-04T17:56:38.823Z,7.43
2023-04-04T17:57:38.810Z,7.39
2023-04-04T17:58:38.787Z,7.38
2023-04-04T17:59:38.795Z,7.33
2023-04-04T18:00:42.038Z,7.31
2023-04-04T18:01:41.814Z,7.29
2023-04-04T18:02:38.885Z,7.24
2023-04-04T18:03:38.865Z,7.23
2023-04-04T18:04:38.708Z,7.20
2023-04-04T18:05:38.704Z,7.17
2023-04-04T18:06:40.445Z,7.14
2023-04-04T18:07:38.645Z,7.13
2023-04-04T18:08:38.691Z,7.10
2023-04-04T18:09:38.654Z,7.10
2023-04-04T18:10:38.886Z,7.06
2023-04-04T18:11:38.644Z,7.03
2023-04-04T18:12:38.639Z,6.99
2023-04-04T18:13:38.631Z,6.97
2023-04-04T18:14:38.578Z,6.95
2023-04-04T18:15:38.634Z,6.89
2023-04-04T18:16:40.825Z,6.89
2023-04-04T18:17:38.595Z,6.87
2023-04-04T18:18:38.541Z,6.85
2023-04-04T18:19:39.103Z,6.84
2023-04-04T18:20:41.479Z,6.81
2023-04-04T18:21:41.494Z,6.78
2023-04-04T18:22:38.463Z,6.77
2023-04-04T18:23:38.431Z,6.75
2023-04-04T18:24:38.415Z,6.72
2023-04-04T18:25:38.431Z,6.70
2023-04-04T18:26:38.426Z,6.69
2023-04-04T18:27:38.425Z,6.69
2023-04-04T18:28:38.398Z,6.66
2023-04-04T18:29:38.372Z,6.63
2023-04-04T18:30:38.565Z,6.62
2023-04-04T18:31:38.346Z,6.59
2023-04-04T18:32:38.404Z,6.57
2023-04-04T18:33:38.363Z,6.56
2023-04-04T18:34:38.307Z,6.54
2023-04-04T18:35:38.327Z,6.49
2023-04-04T18:36:38.272Z,6.49
2023-04-04T18:37:38.270Z,6.49
2023-04-04T18:38:38.310Z,6.46
2023-04-04T18:39:38.255Z,6.46
2023-04-04T18:40:41.440Z,6.45
2023-04-04T18:41:41.222Z,6.45
2023-04-04T18:42:38.177Z,6.45
2023-04-04T18:43:38.163Z,6.41
2023-04-04T18:44:38.174Z,6.42
2023-04-04T18:45:40.587Z,6.41
2023-04-04T18:46:38.149Z,6.39
2023-04-04T18:47:38.190Z,6.38
2023-04-04T18:48:38.141Z,6.36
2023-04-04T18:49:38.255Z,6.33
2023-04-04T18:50:38.687Z,6.30
2023-04-04T18:51:38.250Z,6.30
2023-04-04T18:52:38.115Z,6.26
2023-04-04T18:53:38.056Z,6.26
2023-04-04T18:54:38.021Z,6.22
2023-04-04T18:55:38.044Z,6.20
2023-04-04T18:56:39.033Z,6.19
2023-04-04T18:57:38.006Z,6.16
2023-04-04T18:58:37.985Z,6.14
2023-04-04T18:59:37.979Z,6.12
2023-04-04T19:00:41.153Z,6.09
2023-04-04T19:01:40.983Z,6.07
2023-04-04T19:02:37.995Z,6.05
2023-04-04T19:03:38.027Z,6.02
2023-04-04T19:04:37.907Z,5.98
2023-04-04T19:05:37.877Z,5.98
2023-04-04T19:06:37.866Z,5.91
2023-04-04T19:07:37.902Z,5.89
2023-04-04T19:08:37.837Z,5.86
2023-04-04T19:09:37.862Z,5.83
2023-04-04T19:10:38.082Z,5.82
2023-04-04T19:11:37.825Z,5.76
2023-04-04T19:12:37.824Z,5.73
2023-04-04T19:13:37.825Z,5.69
2023-04-04T19:14:37.829Z,5.69
2023-04-04T19:15:37.819Z,5.64
2023-04-04T19:16:37.852Z,5.59
2023-04-04T19:17:37.848Z,5.53
2023-04-04T19:18:37.720Z,5.50
2023-04-04T19:19:37.717Z,5.44
2023-04-04T19:20:40.792Z,5.41
2023-04-04T19:21:40.733Z,5.39
2023-04-04T19:22:37.708Z,5.32
2023-04-04T19:23:37.643Z,5.23
2023-04-04T19:24:37.656Z,5.21
2023-04-04T19:25:37.606Z,5.18
2023-04-04T19:26:37.600Z,5.17
2023-04-04T19:27:37.604Z,5.12
2023-04-04T19:28:37.572Z,5.10
2023-04-04T19:29:37.560Z,5.07
2023-04-04T19:30:37.635Z,5.00
2023-04-04T19:31:37.601Z,4.94
2023-04-04T19:32:37.546Z,4.96
2023-04-04T19:33:37.522Z,4.96
2023-04-04T19:34:37.516Z,4.93
2023-04-04T19:35:37.609Z,4.89
2023-04-04T19:36:37.505Z,4.82
2023-04-04T19:37:37.489Z,4.74
2023-04-04T19:38:37.466Z,4.67
2023-04-04T19:39:37.503Z,4.62
2023-04-04T19:40:40.556Z,4.56
2023-04-04T19:41:40.451Z,4.49
2023-04-04T19:42:37.441Z,4.44
2023-04-04T19:43:37.403Z,4.38
2023-04-04T19:44:37.409Z,4.37
2023-04-04T19:45:37.378Z,4.37
2023-04-04T19:46:37.564Z,4.35
2023-04-04T19:47:37.404Z,4.37
2023-04-04T19:48:37.343Z,4.35
2023-04-04T19:49:37.357Z,4.34
2023-04-04T19:50:37.330Z,4.31
2023-04-04T19:51:37.327Z,4.28
2023-04-04T19:52:37.312Z,4.17
2023-04-04T19:53:37.254Z,4.12
2023-04-04T19:54:38.222Z,4.05
2023-04-04T19:55:37.196Z,4.04
2023-04-04T19:56:37.192Z,4.01
2023-04-04T19:57:37.200Z,3.98
2023-04-04T19:58:37.153Z,3.91
2023-04-04T19:59:37.282Z,3.87
2023-04-04T20:00:40.232Z,3.81
2023-04-04T20:01:47.328Z,3.76
2023-04-04T20:02:38.189Z,3.70
2023-04-04T20:03:37.111Z,3.68
2023-04-04T20:04:37.109Z,3.68
2023-04-04T20:05:37.108Z,3.68
2023-04-04T20:06:37.035Z,3.65
2023-04-04T20:07:37.035Z,3.62
2023-04-04T20:08:37.016Z,3.59
2023-04-04T20:09:37.009Z,3.55
2023-04-04T20:10:36.983Z,3.48
2023-04-04T20:11:37.033Z,3.47
2023-04-04T20:12:36.962Z,3.42
2023-04-04T20:13:36.967Z,3.36
2023-04-04T20:14:36.985Z,3.28
2023-04-04T20:15:36.914Z,3.19
2023-04-04T20:16:36.955Z,3.16
2023-04-04T20:17:36.941Z,3.07
2023-04-04T20:18:36.867Z,3.05
2023-04-04T20:19:36.876Z,3.01
2023-04-04T20:20:40.034Z,2.95
2023-04-04T20:21:39.893Z,2.93
2023-04-04T20:22:36.819Z,2.87
2023-04-04T20:23:36.803Z,2.72
2023-04-04T20:24:36.800Z,2.69
2023-04-04T20:25:36.872Z,2.80
2023-04-04T20:26:36.770Z,2.87
2023-04-04T20:27:36.776Z,2.82
2023-04-04T20:28:36.779Z,2.80
2023-04-04T20:29:36.717Z,2.71
2023-04-04T20:30:36.703Z,2.71
2023-04-04T20:31:36.789Z,2.72
2023-04-04T20:32:36.805Z,2.64
2023-04-04T20:33:36.680Z,2.64
2023-04-04T20:34:36.660Z,2.65
2023-04-04T20:35:36.676Z,2.67
2023-04-04T20:36:36.635Z,2.72
2023-04-04T20:37:36.631Z,2.74
2023-04-04T20:38:36.597Z,2.68
2023-04-04T20:39:36.590Z,2.61
2023-04-04T20:40:39.954Z,2.62
2023-04-04T20:41:39.639Z,2.64
2023-04-04T20:42:36.561Z,2.75
2023-04-04T20:43:36.546Z,2.57
2023-04-04T20:44:36.587Z,2.71
2023-04-04T20:45:36.596Z,2.71
2023-04-04T20:46:36.550Z,2.68
2023-04-04T20:47:36.598Z,2.47
2023-04-04T20:48:36.473Z,2.53
2023-04-04T20:49:36.470Z,2.49
2023-04-04T20:50:36.482Z,2.38
2023-04-04T20:51:36.440Z,2.47
2023-04-04T20:52:36.412Z,2.57
2023-04-04T20:53:36.410Z,2.53
2023-04-04T20:54:36.403Z,2.44
2023-04-04T20:55:36.365Z,2.43
2023-04-04T20:56:36.366Z,2.33
2023-04-04T20:57:36.333Z,2.29
2023-04-04T20:58:36.321Z,2.42
2023-04-04T20:59:36.356Z,2.36
2023-04-04T21:00:39.622Z,2.35
2023-04-04T21:01:39.380Z,2.39
2023-04-04T21:02:36.307Z,2.24
2023-04-04T21:03:36.266Z,2.46
2023-04-04T21:04:36.341Z,2.49
2023-04-04T21:05:36.278Z,2.49
2023-04-04T21:06:36.216Z,2.49
2023-04-04T21:07:36.200Z,2.38
2023-04-04T21:08:36.188Z,2.25
2023-04-04T21:09:36.230Z,2.33
2023-04-04T21:10:36.212Z,2.33
2023-04-04T21:11:36.270Z,2.14
2023-04-04T21:12:36.151Z,2.24
2023-04-04T21:13:36.188Z,2.10
2023-04-04T21:14:36.113Z,2.20
2023-04-04T21:15:36.368Z,2.13
2023-04-04T21:16:36.154Z,2.18
2023-04-04T21:17:36.118Z,2.02
2023-04-04T21:18:36.114Z,2.15
2023-04-04T21:19:36.060Z,2.11
2023-04-04T21:20:39.421Z,2.04
2023-04-04T21:21:39.100Z,1.95
2023-04-04T21:22:36.043Z,1.91
2023-04-04T21:23:36.015Z,1.92
2023-04-04T21:24:36.026Z,1.84
2023-04-04T21:25:36.011Z,1.84
2023-04-04T21:26:36.004Z,1.78
2023-04-04T21:27:35.972Z,1.70
2023-04-04T21:28:35.948Z,1.71
2023-04-04T21:29:35.916Z,1.67
2023-04-04T21:30:35.921Z,1.66
2023-04-04T21:31:36.157Z,1.66
2023-04-04T21:32:35.892Z,1.67
2023-04-04T21:33:35.871Z,1.63
2023-04-04T21:34:35.853Z,1.73
2023-04-04T21:35:35.896Z,1.68
2023-04-04T21:36:35.860Z,1.68
2023-04-04T21:37:35.832Z,1.84
2023-04-04T21:38:35.791Z,1.88
2023-04-04T21:39:35.779Z,1.87
2023-04-04T21:40:39.104Z,1.88
2023-04-04T21:41:38.773Z,1.89
2023-04-04T21:42:35.796Z,1.89
2023-04-04T21:43:35.736Z,1.88
2023-04-04T21:44:35.734Z,1.88
2023-04-04T21:45:35.697Z,1.94
2023-04-04T21:46:35.949Z,2.00
2023-04-04T21:47:35.754Z,2.07
2023-04-04T21:48:35.664Z,2.02
2023-04-04T21:49:35.669Z,2.00
2023-04-04T21:50:35.645Z,1.95
2023-04-04T21:51:35.624Z,1.85
2023-04-04T21:52:35.648Z,1.87
2023-04-04T21:53:35.602Z,1.81
2023-04-04T21:54:35.592Z,1.78
2023-04-04T21:55:35.586Z,1.80
2023-04-04T21:56:35.589Z,1.68
2023-04-04T21:57:35.584Z,1.71
2023-04-04T21:58:35.545Z,1.68
2023-04-04T21:59:35.596Z,1.70
2023-04-04T22:00:38.881Z,1.66
2023-04-04T22:01:38.759Z,1.70
2023-04-04T22:02:35.500Z,1.77
2023-04-04T22:03:35.504Z,1.85
2023-04-04T22:04:35.488Z,1.97
2023-04-04T22:05:39.050Z,1.95
2023-04-04T22:06:35.428Z,1.94
2023-04-04T22:07:35.416Z,1.95
2023-04-04T22:08:35.432Z,1.95
2023-04-04T22:09:35.473Z,2.04
2023-04-04T22:10:35.388Z,2.02
2023-04-04T22:11:35.383Z,1.99
2023-04-04T22:12:35.358Z,1.95
2023-04-04T22:13:35.386Z,1.92
2023-04-04T22:14:35.348Z,1.87
2023-04-04T22:15:35.349Z,1.87
2023-04-04T22:16:35.363Z,1.95
2023-04-04T22:17:35.328Z,1.89
2023-04-04T22:18:35.285Z,1.78
2023-04-04T22:19:35.290Z,1.76
2023-04-04T22:20:38.371Z,1.76
2023-04-04T22:21:38.241Z,1.70
2023-04-04T22:22:35.268Z,1.67
2023-04-04T22:23:35.258Z,1.60
2023-04-04T22:24:35.197Z,1.56
2023-04-04T22:25:35.224Z,1.49
2023-04-04T22:26:35.192Z,1.42
2023-04-04T22:27:35.217Z,1.41
2023-04-04T22:28:35.176Z,1.40
2023-04-04T22:29:35.157Z,1.35
2023-04-04T22:30:35.129Z,1.32
2023-04-04T22:31:35.233Z,1.26
2023-04-04T22:32:35.185Z,1.26
2023-04-04T22:33:35.116Z,1.23
2023-04-04T22:34:35.114Z,1.20
2023-04-04T22:35:35.066Z,1.17
2023-04-04T22:36:35.072Z,1.17
2023-04-04T22:37:35.059Z,1.23
2023-04-04T22:38:35.084Z,1.32
2023-04-04T22:39:35.030Z,1.38
2023-04-04T22:40:38.050Z,1.41
2023-04-04T22:41:38.016Z,1.44
2023-04-04T22:42:34.986Z,1.48
2023-04-04T22:43:34.993Z,1.52
2023-04-04T22:44:34.970Z,1.63
2023-04-04T22:45:34.979Z,1.70
2023-04-04T22:46:34.938Z,1.73
2023-04-04T22:47:34.923Z,1.68
2023-04-04T22:48:34.919Z,1.73
2023-04-04T22:49:34.927Z,1.76
2023-04-04T22:50:34.881Z,1.80
2023-04-04T22:51:34.957Z,1.77
2023-04-04T22:52:34.861Z,1.84
2023-04-04T22:53:34.832Z,1.76
2023-04-04T22:54:34.828Z,1.76
2023-04-04T22:55:34.840Z,1.84
2023-04-04T22:56:34.801Z,1.78
2023-04-04T22:57:34.836Z,1.74
2023-04-04T22:58:34.757Z,1.71
2023-04-04T22:59:34.784Z,1.66
2023-04-04T23:00:37.767Z,1.68
2023-04-04T23:01:37.892Z,1.68
2023-04-04T23:02:34.796Z,1.63
2023-04-04T23:03:34.740Z,1.67
2023-04-04T23:04:34.736Z,1.66
2023-04-04T23:05:34.677Z,1.62
2023-04-04T23:06:34.658Z,1.63
2023-04-04T23:07:34.662Z,1.60
2023-04-04T23:08:34.639Z,1.59
2023-04-04T23:09:34.651Z,1.56
2023-04-04T23:10:34.645Z,1.56
2023-04-04T23:11:34.598Z,1.58
2023-04-04T23:12:34.597Z,1.60
2023-04-04T23:13:34.623Z,1.63
2023-04-04T23:14:34.555Z,1.66
2023-04-04T23:15:34.567Z,1.67
2023-04-04T23:16:34.527Z,1.62
2023-04-04T23:17:34.523Z,1.58
2023-04-04T23:18:34.513Z,1.70
2023-04-04T23:19:34.547Z,1.73
2023-04-04T23:20:37.464Z,1.68
2023-04-04T23:21:37.528Z,1.59
2023-04-04T23:22:34.437Z,1.58
2023-04-04T23:23:34.443Z,1.55
2023-04-04T23:24:34.424Z,1.45
2023-04-04T23:25:34.434Z,1.37
2023-04-04T23:26:34.396Z,1.35
2023-04-04T23:27:34.394Z,1.30
2023-04-04T23:28:34.366Z,1.23
2023-04-04T23:29:34.373Z,1.13
2023-04-04T23:30:34.359Z,1.14
2023-04-04T23:31:34.415Z,1.12
2023-04-04T23:32:34.351Z,1.06
2023-04-04T23:33:34.324Z,1.02
2023-04-04T23:34:34.297Z,0.99
2023-04-04T23:35:34.278Z,0.95
2023-04-04T23:36:34.336Z,0.98
2023-04-04T23:37:34.245Z,0.92
2023-04-04T23:38:34.225Z,0.87
2023-04-04T23:39:34.299Z,0.84
2023-04-04T23:40:37.208Z,0.91
2023-04-04T23:41:37.204Z,0.83
2023-04-04T23:42:34.165Z,0.84
2023-04-04T23:43:34.160Z,0.76
2023-04-04T23:44:34.145Z,0.76
2023-04-04T23:45:34.157Z,0.76
2023-04-04T23:46:34.169Z,0.73
2023-04-04T23:47:34.187Z,0.69
2023-04-04T23:48:34.099Z,0.68
2023-04-04T23:49:34.118Z,0.66
2023-04-04T23:50:34.083Z,0.68
2023-04-04T23:51:34.061Z,0.66
2023-04-04T23:52:34.066Z,0.66
2023-04-04T23:53:34.020Z,0.59
2023-04-04T23:54:34.035Z,0.56
2023-04-04T23:55:33.996Z,0.56
2023-04-04T23:56:33.981Z,0.46
2023-04-04T23:57:33.956Z,0.47
2023-04-04T23:58:33.963Z,0.47
2023-04-04T23:59:34.054Z,0.39
